sensor_id;sensor_type;location;lat;lon;timestamp;pressure;altitude;pressure_sealevel;temperature;humidity
80853;BME280;70270;43.434;28.338;2023-08-21T00:00:57;99931.19;;;29.07;29.81
80853;BME280;70270;43.434;28.338;2023-08-21T00:03:42;99986.88;;;29.38;29.88
80853;BME280;70270;43.434;28.338;2023-08-21T00:06:26;99979.13;;;29.26;29.98
80853;BME280;70270;43.434;28.338;2023-08-21T00:09:10;99982.28;;;29.33;29.84
80853;BME280;70270;43.434;28.338;2023-08-21T00:11:55;99875.16;;;28.52;29.89
80853;BME280;70270;43.434;28.338;2023-08-21T00:14:39;99964.66;;;28.98;30.14
80853;BME280;70270;43.434;28.338;2023-08-21T00:17:24;99898.94;;;28.58;30.01
80853;BME280;70270;43.434;28.338;2023-08-21T00:20:09;99999.00;;;29.16;29.84
80853;BME280;70270;43.434;28.338;2023-08-21T00:22:53;100006.38;;;29.12;30.11
80853;BME280;70270;43.434;28.338;2023-08-21T00:25:38;99996.69;;;29.09;29.95
80853;BME280;70270;43.434;28.338;2023-08-21T00:28:22;99979.44;;;28.99;30.25
80853;BME280;70270;43.434;28.338;2023-08-21T00:31:07;99996.84;;;29.04;30.20
80853;BME280;70270;43.434;28.338;2023-08-21T00:33:52;99880.88;;;28.38;30.33
80853;BME280;70270;43.434;28.338;2023-08-21T00:36:36;99997.66;;;29.13;30.21
80853;BME280;70270;43.434;28.338;2023-08-21T00:39:20;99899.91;;;28.53;30.46
80853;BME280;70270;43.434;28.338;2023-08-21T00:42:05;99992.91;;;29.05;30.69
80853;BME280;70270;43.434;28.338;2023-08-21T00:44:51;99980.56;;;28.98;30.85
80853;BME280;70270;43.434;28.338;2023-08-21T00:47:36;99989.47;;;29.08;31.13
80853;BME280;70270;43.434;28.338;2023-08-21T00:50:20;99980.56;;;28.98;30.89
80853;BME280;70270;43.434;28.338;2023-08-21T00:53:05;99989.47;;;29.00;31.37
80853;BME280;70270;43.434;28.338;2023-08-21T00:55:51;99984.03;;;28.95;31.14
80853;BME280;70270;43.434;28.338;2023-08-21T00:58:36;99948.69;;;28.73;31.04
80853;BME280;70270;43.434;28.338;2023-08-21T01:01:24;99876.63;;;28.41;30.91
80853;BME280;70270;43.434;28.338;2023-08-21T01:04:10;99995.88;;;29.09;30.90
80853;BME280;70270;43.434;28.338;2023-08-21T01:06:56;99996.34;;;29.02;30.87
80853;BME280;70270;43.434;28.338;2023-08-21T01:12:50;99987.16;;;28.85;31.22
80853;BME280;70270;43.434;28.338;2023-08-21T01:15:37;99852.44;;;28.10;31.27
80853;BME280;70270;43.434;28.338;2023-08-21T01:18:22;99970.88;;;28.87;31.10
80853;BME280;70270;43.434;28.338;2023-08-21T01:21:08;99966.63;;;28.80;30.96
80853;BME280;70270;43.434;28.338;2023-08-21T01:23:53;99969.56;;;28.75;30.85
80853;BME280;70270;43.434;28.338;2023-08-21T01:26:37;99971.34;;;28.71;31.01
80853;BME280;70270;43.434;28.338;2023-08-21T01:29:22;99888.56;;;28.24;30.91
80853;BME280;70270;43.434;28.338;2023-08-21T01:32:11;99988.56;;;28.73;30.90
80853;BME280;70270;43.434;28.338;2023-08-21T01:34:59;99877.63;;;28.05;31.00
80853;BME280;70270;43.434;28.338;2023-08-21T01:37:43;99858.44;;;27.95;30.89
80853;BME280;70270;43.434;28.338;2023-08-21T01:40:28;99973.81;;;28.81;30.72
80853;BME280;70270;43.434;28.338;2023-08-21T01:43:12;99915.66;;;28.49;30.62
80853;BME280;70270;43.434;28.338;2023-08-21T01:45:57;99978.44;;;28.95;30.43
80853;BME280;70270;43.434;28.338;2023-08-21T01:48:42;99985.69;;;28.96;30.72
80853;BME280;70270;43.434;28.338;2023-08-21T01:51:27;99995.53;;;29.02;30.39
80853;BME280;70270;43.434;28.338;2023-08-21T01:54:11;99957.09;;;28.81;30.44
80853;BME280;70270;43.434;28.338;2023-08-21T01:56:56;99964.31;;;28.82;30.26
80853;BME280;70270;43.434;28.338;2023-08-21T01:59:41;100006.69;;;29.02;30.17
80853;BME280;70270;43.434;28.338;2023-08-21T02:02:25;99974.19;;;28.89;30.59
80853;BME280;70270;43.434;28.338;2023-08-21T02:05:09;99906.28;;;28.45;30.57
80853;BME280;70270;43.434;28.338;2023-08-21T02:07:54;100002.59;;;28.99;30.77
80853;BME280;70270;43.434;28.338;2023-08-21T02:10:49;99995.50;;;28.85;30.72
80853;BME280;70270;43.434;28.338;2023-08-21T02:13:34;99897.53;;;28.21;30.82
80853;BME280;70270;43.434;28.338;2023-08-21T02:16:19;99994.19;;;28.82;30.87
80853;BME280;70270;43.434;28.338;2023-08-21T02:19:05;100026.06;;;28.59;30.96
80853;BME280;70270;43.434;28.338;2023-08-21T02:21:50;99993.44;;;28.59;30.92
80853;BME280;70270;43.434;28.338;2023-08-21T02:24:34;100012.63;;;28.52;31.01
80853;BME280;70270;43.434;28.338;2023-08-21T02:27:19;99996.72;;;28.61;31.05
80853;BME280;70270;43.434;28.338;2023-08-21T02:30:05;100000.47;;;28.48;31.19
80853;BME280;70270;43.434;28.338;2023-08-21T02:32:49;100008.44;;;28.41;31.35
80853;BME280;70270;43.434;28.338;2023-08-21T02:35:35;100002.59;;;28.51;31.33
80853;BME280;70270;43.434;28.338;2023-08-21T02:38:20;99999.63;;;28.48;31.33
80853;BME280;70270;43.434;28.338;2023-08-21T02:41:05;100015.59;;;28.25;31.42
80853;BME280;70270;43.434;28.338;2023-08-21T02:43:50;99992.09;;;28.17;31.85
80853;BME280;70270;43.434;28.338;2023-08-21T02:46:35;99998.34;;;28.14;31.92
80853;BME280;70270;43.434;28.338;2023-08-21T02:49:21;99993.19;;;28.08;32.08
80853;BME280;70270;43.434;28.338;2023-08-21T02:52:06;99997.19;;;28.15;31.90
80853;BME280;70270;43.434;28.338;2023-08-21T02:54:50;99933.00;;;27.67;32.22
80853;BME280;70270;43.434;28.338;2023-08-21T02:57:35;99994.03;;;28.08;32.04
80853;BME280;70270;43.434;28.338;2023-08-21T03:00:19;100006.81;;;28.09;32.25
80853;BME280;70270;43.434;28.338;2023-08-21T03:03:04;100002.59;;;27.89;32.24
80853;BME280;70270;43.434;28.338;2023-08-21T03:05:50;99984.84;;;27.85;32.74
80853;BME280;70270;43.434;28.338;2023-08-21T03:08:34;100005.19;;;27.86;32.72
80853;BME280;70270;43.434;28.338;2023-08-21T03:11:19;99992.72;;;27.83;32.66
80853;BME280;70270;43.434;28.338;2023-08-21T03:14:04;100028.53;;;27.99;32.82
80853;BME280;70270;43.434;28.338;2023-08-21T03:16:48;100009.69;;;27.96;33.14
80853;BME280;70270;43.434;28.338;2023-08-21T03:19:32;100028.91;;;28.06;33.11
80853;BME280;70270;43.434;28.338;2023-08-21T03:22:17;100004.41;;;27.94;33.25
80853;BME280;70270;43.434;28.338;2023-08-21T03:25:01;99993.09;;;27.90;33.26
80853;BME280;70270;43.434;28.338;2023-08-21T03:27:46;100012.56;;;28.13;33.51
80853;BME280;70270;43.434;28.338;2023-08-21T03:30:33;100016.72;;;28.15;33.60
80853;BME280;70270;43.434;28.338;2023-08-21T03:33:17;99901.53;;;27.44;34.19
80853;BME280;70270;43.434;28.338;2023-08-21T03:36:02;100019.16;;;28.17;33.76
80853;BME280;70270;43.434;28.338;2023-08-21T03:38:46;99973.91;;;27.89;34.37
80853;BME280;70270;43.434;28.338;2023-08-21T03:41:31;100043.28;;;28.21;34.37
80853;BME280;70270;43.434;28.338;2023-08-21T03:44:15;100019.97;;;28.17;34.58
80853;BME280;70270;43.434;28.338;2023-08-21T03:47:00;100008.16;;;28.12;34.79
80853;BME280;70270;43.434;28.338;2023-08-21T03:49:44;99996.53;;;28.18;34.45
80853;BME280;70270;43.434;28.338;2023-08-21T03:52:28;100017.97;;;28.40;34.61
80853;BME280;70270;43.434;28.338;2023-08-21T03:55:13;100020.03;;;28.26;34.59
80853;BME280;70270;43.434;28.338;2023-08-21T03:57:57;99940.75;;;27.79;34.71
80853;BME280;70270;43.434;28.338;2023-08-21T04:00:42;100024.56;;;28.44;34.76
80853;BME280;70270;43.434;28.338;2023-08-21T04:03:26;100012.75;;;28.47;34.58
80853;BME280;70270;43.434;28.338;2023-08-21T04:06:11;99936.47;;;28.04;34.81
80853;BME280;70270;43.434;28.338;2023-08-21T04:08:55;100042.28;;;28.57;34.76
80853;BME280;70270;43.434;28.338;2023-08-21T04:11:40;99884.41;;;27.82;34.97
80853;BME280;70270;43.434;28.338;2023-08-21T04:14:25;100033.13;;;28.65;34.93
80853;BME280;70270;43.434;28.338;2023-08-21T04:17:09;99913.81;;;27.97;34.94
80853;BME280;70270;43.434;28.338;2023-08-21T04:19:55;100033.25;;;28.91;34.51
80853;BME280;70270;43.434;28.338;2023-08-21T04:22:40;100025.66;;;28.74;34.82
80853;BME280;70270;43.434;28.338;2023-08-21T04:25:24;99812.28;;;27.63;34.61
80853;BME280;70270;43.434;28.338;2023-08-21T04:28:09;100029.53;;;29.04;34.74
80853;BME280;70270;43.434;28.338;2023-08-21T04:30:54;100031.69;;;29.24;34.88
80853;BME280;70270;43.434;28.338;2023-08-21T04:33:39;100033.34;;;29.34;34.66
80853;BME280;70270;43.434;28.338;2023-08-21T04:36:23;99937.09;;;28.97;34.19
80853;BME280;70270;43.434;28.338;2023-08-21T04:39:08;100041.59;;;29.64;34.59
80853;BME280;70270;43.434;28.338;2023-08-21T04:41:53;100028.56;;;29.77;33.87
80853;BME280;70270;43.434;28.338;2023-08-21T04:44:37;99973.22;;;29.70;33.69
80853;BME280;70270;43.434;28.338;2023-08-21T04:47:24;100035.63;;;30.09;33.36
80853;BME280;70270;43.434;28.338;2023-08-21T04:50:12;100005.53;;;30.06;33.34
80853;BME280;70270;43.434;28.338;2023-08-21T04:52:57;99935.91;;;29.66;32.88
80853;BME280;70270;43.434;28.338;2023-08-21T04:55:42;100036.19;;;30.49;33.07
80853;BME280;70270;43.434;28.338;2023-08-21T04:58:27;100005.13;;;30.33;32.33
80853;BME280;70270;43.434;28.338;2023-08-21T05:01:11;100013.75;;;30.57;32.57
80853;BME280;70270;43.434;28.338;2023-08-21T05:04:01;100021.88;;;30.80;32.71
80853;BME280;70270;43.434;28.338;2023-08-21T05:06:46;100054.84;;;31.03;32.82
80853;BME280;70270;43.434;28.338;2023-08-21T05:09:31;100037.81;;;31.17;31.67
80853;BME280;70270;43.434;28.338;2023-08-21T05:12:16;100030.72;;;31.20;31.75
80853;BME280;70270;43.434;28.338;2023-08-21T05:15:00;100040.69;;;31.29;31.87
80853;BME280;70270;43.434;28.338;2023-08-21T05:17:45;100059.25;;;31.34;31.94
80853;BME280;70270;43.434;28.338;2023-08-21T05:20:29;100049.97;;;31.42;31.16
80853;BME280;70270;43.434;28.338;2023-08-21T05:23:15;100069.84;;;31.58;31.65
80853;BME280;70270;43.434;28.338;2023-08-21T05:26:01;99981.13;;;31.20;31.78
80853;BME280;70270;43.434;28.338;2023-08-21T05:28:46;99965.03;;;31.17;31.09
80853;BME280;70270;43.434;28.338;2023-08-21T05:31:30;100034.28;;;31.70;30.71
80853;BME280;70270;43.434;28.338;2023-08-21T05:34:16;100061.13;;;31.92;30.67
80853;BME280;70270;43.434;28.338;2023-08-21T05:37:00;100052.69;;;32.13;30.38
80853;BME280;70270;43.434;28.338;2023-08-21T05:39:45;100061.03;;;32.21;30.37
80853;BME280;70270;43.434;28.338;2023-08-21T05:42:30;100065.00;;;32.32;30.36
80853;BME280;70270;43.434;28.338;2023-08-21T05:45:14;100063.16;;;32.36;29.82
80853;BME280;70270;43.434;28.338;2023-08-21T05:47:59;100049.25;;;32.40;29.92
80853;BME280;70270;43.434;28.338;2023-08-21T05:50:43;100069.31;;;32.75;29.54
80853;BME280;70270;43.434;28.338;2023-08-21T05:53:28;100073.53;;;32.81;30.13
80853;BME280;70270;43.434;28.338;2023-08-21T05:56:12;100037.03;;;32.69;29.43
80853;BME280;70270;43.434;28.338;2023-08-21T05:58:57;100070.34;;;33.07;29.80
80853;BME280;70270;43.434;28.338;2023-08-21T06:01:43;99995.88;;;32.73;29.15
80853;BME280;70270;43.434;28.338;2023-08-21T06:04:28;100065.56;;;33.07;29.28
80853;BME280;70270;43.434;28.338;2023-08-21T06:07:16;100034.56;;;33.16;28.99
80853;BME280;70270;43.434;28.338;2023-08-21T06:10:01;100067.88;;;33.42;28.77
80853;BME280;70270;43.434;28.338;2023-08-21T06:12:45;100060.16;;;33.38;28.78
80853;BME280;70270;43.434;28.338;2023-08-21T06:15:30;100069.38;;;33.51;28.87
80853;BME280;70270;43.434;28.338;2023-08-21T06:18:15;100071.94;;;33.68;28.44
80853;BME280;70270;43.434;28.338;2023-08-21T06:20:59;100071.69;;;33.73;28.30
80853;BME280;70270;43.434;28.338;2023-08-21T06:23:44;100070.25;;;33.79;28.13
80853;BME280;70270;43.434;28.338;2023-08-21T06:26:28;100079.34;;;33.89;27.84
80853;BME280;70270;43.434;28.338;2023-08-21T06:29:13;100064.06;;;34.02;27.67
80853;BME280;70270;43.434;28.338;2023-08-21T06:31:58;100075.59;;;34.24;28.04
80853;BME280;70270;43.434;28.338;2023-08-21T06:34:43;100075.50;;;34.37;27.47
80853;BME280;70270;43.434;28.338;2023-08-21T06:37:28;100078.97;;;34.46;27.58
80853;BME280;70270;43.434;28.338;2023-08-21T06:40:12;99996.09;;;34.00;27.22
80853;BME280;70270;43.434;28.338;2023-08-21T06:42:57;100075.78;;;34.63;26.94
80853;BME280;70270;43.434;28.338;2023-08-21T06:45:46;99995.88;;;34.20;27.33
80853;BME280;70270;43.434;28.338;2023-08-21T06:48:30;100072.47;;;34.89;26.74
80853;BME280;70270;43.434;28.338;2023-08-21T06:51:16;99971.22;;;34.45;26.33
80853;BME280;70270;43.434;28.338;2023-08-21T06:54:01;100071.97;;;35.34;25.96
80853;BME280;70270;43.434;28.338;2023-08-21T06:56:45;100063.94;;;35.36;25.43
80853;BME280;70270;43.434;28.338;2023-08-21T06:59:29;100061.75;;;35.45;25.80
80853;BME280;70270;43.434;28.338;2023-08-21T07:02:14;100072.88;;;35.57;25.49
80853;BME280;70270;43.434;28.338;2023-08-21T07:04:59;100072.31;;;35.67;25.10
80853;BME280;70270;43.434;28.338;2023-08-21T07:07:43;100073.94;;;35.87;24.94
80853;BME280;70270;43.434;28.338;2023-08-21T07:10:27;100079.47;;;36.19;24.27
80853;BME280;70270;43.434;28.338;2023-08-21T07:13:13;100078.72;;;36.22;24.15
80853;BME280;70270;43.434;28.338;2023-08-21T07:15:57;100084.84;;;36.46;23.76
80853;BME280;70270;43.434;28.338;2023-08-21T07:18:42;100080.00;;;36.47;23.32
80853;BME280;70270;43.434;28.338;2023-08-21T07:21:26;100082.69;;;36.59;23.92
80853;BME280;70270;43.434;28.338;2023-08-21T07:24:11;100083.38;;;36.75;23.34
80853;BME280;70270;43.434;28.338;2023-08-21T07:26:56;99995.97;;;36.40;22.82
80853;BME280;70270;43.434;28.338;2023-08-21T07:29:40;100088.41;;;37.12;23.08
80853;BME280;70270;43.434;28.338;2023-08-21T07:32:25;99990.78;;;36.65;22.74
80853;BME280;70270;43.434;28.338;2023-08-21T07:35:09;100080.38;;;37.14;22.02
80853;BME280;70270;43.434;28.338;2023-08-21T07:37:54;99985.84;;;36.58;22.53
80853;BME280;70270;43.434;28.338;2023-08-21T07:40:39;100086.47;;;37.16;22.01
80853;BME280;70270;43.434;28.338;2023-08-21T07:43:23;100093.53;;;37.29;22.47
80853;BME280;70270;43.434;28.338;2023-08-21T07:46:10;100080.03;;;37.45;22.29
80853;BME280;70270;43.434;28.338;2023-08-21T07:48:57;100069.66;;;37.53;22.26
80853;BME280;70270;43.434;28.338;2023-08-21T07:51:41;100074.53;;;37.85;21.82
80853;BME280;70270;43.434;28.338;2023-08-21T07:54:26;100077.63;;;38.03;21.73
80853;BME280;70270;43.434;28.338;2023-08-21T07:57:11;99993.34;;;37.56;21.65
80853;BME280;70270;43.434;28.338;2023-08-21T07:59:55;100074.66;;;38.26;21.52
80853;BME280;70270;43.434;28.338;2023-08-21T08:02:40;100063.56;;;38.47;20.12
80853;BME280;70270;43.434;28.338;2023-08-21T08:05:24;100086.69;;;38.56;20.21
80853;BME280;70270;43.434;28.338;2023-08-21T08:08:09;100084.81;;;38.67;20.16
80853;BME280;70270;43.434;28.338;2023-08-21T08:10:54;100075.94;;;38.72;20.23
80853;BME280;70270;43.434;28.338;2023-08-21T08:13:38;100079.84;;;39.01;20.31
80853;BME280;70270;43.434;28.338;2023-08-21T08:16:23;100086.84;;;39.18;19.76
80853;BME280;70270;43.434;28.338;2023-08-21T08:19:07;100081.13;;;39.07;19.36
80853;BME280;70270;43.434;28.338;2023-08-21T08:21:52;100081.97;;;39.15;19.46
80853;BME280;70270;43.434;28.338;2023-08-21T08:24:36;100007.28;;;38.90;19.50
80853;BME280;70270;43.434;28.338;2023-08-21T08:27:21;100073.72;;;39.50;18.41
80853;BME280;70270;43.434;28.338;2023-08-21T08:30:06;100083.94;;;39.65;18.83
80853;BME280;70270;43.434;28.338;2023-08-21T08:32:51;100069.38;;;39.70;18.44
80853;BME280;70270;43.434;28.338;2023-08-21T08:35:35;100083.09;;;39.61;18.31
80853;BME280;70270;43.434;28.338;2023-08-21T08:38:20;100077.53;;;39.75;18.10
80853;BME280;70270;43.434;28.338;2023-08-21T08:41:12;100068.66;;;39.88;18.35
80853;BME280;70270;43.434;28.338;2023-08-21T08:43:59;100076.00;;;40.03;18.23
80853;BME280;70270;43.434;28.338;2023-08-21T08:46:47;100023.13;;;39.66;18.26
80853;BME280;70270;43.434;28.338;2023-08-21T08:49:32;100061.38;;;39.94;17.98
80853;BME280;70270;43.434;28.338;2023-08-21T08:52:17;100074.38;;;40.05;17.56
80853;BME280;70270;43.434;28.338;2023-08-21T08:55:03;100040.28;;;39.88;17.70
80853;BME280;70270;43.434;28.338;2023-08-21T08:57:47;100065.31;;;39.71;18.12
80853;BME280;70270;43.434;28.338;2023-08-21T09:00:32;100043.72;;;39.49;17.83
80853;BME280;70270;43.434;28.338;2023-08-21T09:03:16;100043.75;;;39.56;18.03
80853;BME280;70270;43.434;28.338;2023-08-21T09:06:01;100072.72;;;39.87;17.45
80853;BME280;70270;43.434;28.338;2023-08-21T09:08:55;100055.69;;;39.94;17.38
80853;BME280;70270;43.434;28.338;2023-08-21T09:11:45;99988.16;;;39.41;17.83
80853;BME280;70270;43.434;28.338;2023-08-21T09:14:29;100038.28;;;39.99;17.60
80853;BME280;70270;43.434;28.338;2023-08-21T09:17:16;100037.47;;;40.02;16.26
80853;BME280;70270;43.434;28.338;2023-08-21T09:20:07;100061.91;;;40.35;16.91
80853;BME280;70270;43.434;28.338;2023-08-21T09:22:55;100044.09;;;40.52;17.46
80853;BME280;70270;43.434;28.338;2023-08-21T09:25:40;100046.97;;;40.62;17.35
80853;BME280;70270;43.434;28.338;2023-08-21T09:28:25;100033.97;;;40.61;17.16
80853;BME280;70270;43.434;28.338;2023-08-21T09:31:10;100045.31;;;40.61;16.79
80853;BME280;70270;43.434;28.338;2023-08-21T09:33:56;100051.41;;;40.56;16.51
80853;BME280;70270;43.434;28.338;2023-08-21T09:36:41;99894.19;;;39.46;16.23
80853;BME280;70270;43.434;28.338;2023-08-21T09:39:32;100045.69;;;40.32;16.35
80853;BME280;70270;43.434;28.338;2023-08-21T09:42:17;100055.91;;;40.64;16.25
80853;BME280;70270;43.434;28.338;2023-08-21T09:45:02;100048.19;;;40.79;15.46
80853;BME280;70270;43.434;28.338;2023-08-21T09:47:49;100023.81;;;40.71;15.53
80853;BME280;70270;43.434;28.338;2023-08-21T09:50:33;100051.03;;;40.79;15.44
80853;BME280;70270;43.434;28.338;2023-08-21T09:53:23;99968.97;;;40.21;15.17
80853;BME280;70270;43.434;28.338;2023-08-21T09:56:07;100052.25;;;40.67;15.13
80853;BME280;70270;43.434;28.338;2023-08-21T09:58:53;99996.13;;;40.08;15.06
80853;BME280;70270;43.434;28.338;2023-08-21T10:01:38;100064.84;;;40.59;14.96
80853;BME280;70270;43.434;28.338;2023-08-21T10:04:23;100045.69;;;40.49;15.39
80853;BME280;70270;43.434;28.338;2023-08-21T10:07:09;100055.03;;;40.50;15.76
80853;BME280;70270;43.434;28.338;2023-08-21T10:09:55;100038.84;;;40.64;15.64
80853;BME280;70270;43.434;28.338;2023-08-21T10:12:40;100048.19;;;40.83;15.74
80853;BME280;70270;43.434;28.338;2023-08-21T10:15:24;100055.47;;;41.05;15.71
80853;BME280;70270;43.434;28.338;2023-08-21T10:18:36;100042.88;;;41.13;15.64
80853;BME280;70270;43.434;28.338;2023-08-21T10:21:22;100049.41;;;41.03;14.79
80853;BME280;70270;43.434;28.338;2023-08-21T10:24:09;100042.50;;;41.04;14.77
80853;BME280;70270;43.434;28.338;2023-08-21T10:26:53;99958.44;;;40.46;14.73
80853;BME280;70270;43.434;28.338;2023-08-21T10:29:38;100043.31;;;41.01;15.07
80853;BME280;70270;43.434;28.338;2023-08-21T10:32:23;99934.88;;;40.49;15.12
80853;BME280;70270;43.434;28.338;2023-08-21T10:35:14;100040.03;;;40.99;14.93
80853;BME280;70270;43.434;28.338;2023-08-21T10:38:09;100031.41;;;40.14;15.98
80853;BME280;70270;43.434;28.338;2023-08-21T10:41:05;100036.81;;;40.58;15.32
80853;BME280;70270;43.434;28.338;2023-08-21T10:43:49;100020.97;;;40.82;15.37
80853;BME280;70270;43.434;28.338;2023-08-21T10:46:50;100042.88;;;40.95;15.06
80853;BME280;70270;43.434;28.338;2023-08-21T10:49:35;100041.69;;;41.07;15.00
80853;BME280;70270;43.434;28.338;2023-08-21T10:52:28;100029.03;;;41.33;14.60
80853;BME280;70270;43.434;28.338;2023-08-21T10:55:20;100023.69;;;41.49;14.69
80853;BME280;70270;43.434;28.338;2023-08-21T10:58:04;100027.28;;;41.71;14.61
80853;BME280;70270;43.434;28.338;2023-08-21T11:00:58;100022.78;;;41.84;14.20
80853;BME280;70270;43.434;28.338;2023-08-21T11:03:50;99953.41;;;41.42;14.03
80853;BME280;70270;43.434;28.338;2023-08-21T11:06:35;100017.84;;;41.95;14.27
80853;BME280;70270;43.434;28.338;2023-08-21T11:09:20;100014.25;;;41.77;14.28
80853;BME280;70270;43.434;28.338;2023-08-21T11:12:16;99997.16;;;41.73;14.83
80853;BME280;70270;43.434;28.338;2023-08-21T11:15:03;100009.88;;;41.54;15.18
80853;BME280;70270;43.434;28.338;2023-08-21T11:17:55;100013.81;;;41.82;15.01
80853;BME280;70270;43.434;28.338;2023-08-21T11:20:41;99956.63;;;41.51;14.47
80853;BME280;70270;43.434;28.338;2023-08-21T11:23:32;100013.38;;;41.90;14.63
80853;BME280;70270;43.434;28.338;2023-08-21T11:26:17;100003.69;;;41.74;14.85
80853;BME280;70270;43.434;28.338;2023-08-21T11:29:01;100010.97;;;41.89;14.14
80853;BME280;70270;43.434;28.338;2023-08-21T11:31:47;100019.03;;;42.01;13.95
80853;BME280;70270;43.434;28.338;2023-08-21T11:34:32;99976.69;;;42.03;14.70
80853;BME280;70270;43.434;28.338;2023-08-21T11:37:22;99923.13;;;41.80;14.04
80853;BME280;70270;43.434;28.338;2023-08-21T11:40:07;99973.41;;;42.08;13.46
80853;BME280;70270;43.434;28.338;2023-08-21T11:43:00;99983.44;;;42.30;13.84
80853;BME280;70270;43.434;28.338;2023-08-21T11:45:47;100015.78;;;42.58;13.69
80853;BME280;70270;43.434;28.338;2023-08-21T11:48:35;100012.50;;;42.63;13.96
80853;BME280;70270;43.434;28.338;2023-08-21T11:51:22;100018.94;;;42.74;13.42
80853;BME280;70270;43.434;28.338;2023-08-21T11:54:07;100010.56;;;42.53;13.50
80853;BME280;70270;43.434;28.338;2023-08-21T11:56:53;100007.47;;;42.81;12.88
80853;BME280;70270;43.434;28.338;2023-08-21T11:59:38;100012.78;;;42.79;13.11
80853;BME280;70270;43.434;28.338;2023-08-21T12:02:23;100009.72;;;43.00;13.01
80853;BME280;70270;43.434;28.338;2023-08-21T12:05:14;99991.78;;;42.55;13.42
80853;BME280;70270;43.434;28.338;2023-08-21T12:08:01;100006.66;;;42.29;13.75
80853;BME280;70270;43.434;28.338;2023-08-21T12:10:50;99970.16;;;42.06;14.20
80853;BME280;70270;43.434;28.338;2023-08-21T12:13:35;100006.19;;;42.37;13.35
80853;BME280;70270;43.434;28.338;2023-08-21T12:16:22;99919.34;;;42.01;12.94
80853;BME280;70270;43.434;28.338;2023-08-21T12:19:06;100011.94;;;42.82;12.88
80853;BME280;70270;43.434;28.338;2023-08-21T12:21:53;100012.66;;;42.93;13.03
80853;BME280;70270;43.434;28.338;2023-08-21T12:24:37;100019.47;;;43.06;12.45
80853;BME280;70270;43.434;28.338;2023-08-21T12:27:24;100014.47;;;43.17;12.74
80853;BME280;70270;43.434;28.338;2023-08-21T12:30:12;100005.91;;;43.17;12.68
80853;BME280;70270;43.434;28.338;2023-08-21T12:32:57;100010.31;;;43.25;13.49
80853;BME280;70270;43.434;28.338;2023-08-21T12:35:41;100017.50;;;42.96;13.43
80853;BME280;70270;43.434;28.338;2023-08-21T12:38:26;100031.56;;;42.76;13.44
80853;BME280;70270;43.434;28.338;2023-08-21T12:41:13;100015.41;;;42.56;12.88
80853;BME280;70270;43.434;28.338;2023-08-21T12:44:01;100024.31;;;42.65;12.87
80853;BME280;70270;43.434;28.338;2023-08-21T12:46:47;100026.78;;;42.59;13.17
80853;BME280;70270;43.434;28.338;2023-08-21T12:49:31;100025.31;;;42.40;13.21
80853;BME280;70270;43.434;28.338;2023-08-21T12:52:16;100012.28;;;42.39;13.41
80853;BME280;70270;43.434;28.338;2023-08-21T12:55:00;100017.75;;;42.71;13.88
80853;BME280;70270;43.434;28.338;2023-08-21T12:57:48;100022.84;;;42.90;13.48
80853;BME280;70270;43.434;28.338;2023-08-21T13:00:33;100027.19;;;43.06;13.47
80853;BME280;70270;43.434;28.338;2023-08-21T13:03:18;100024.19;;;42.79;14.50
80853;BME280;70270;43.434;28.338;2023-08-21T13:06:02;100011.78;;;42.52;15.02
80853;BME280;70270;43.434;28.338;2023-08-21T13:08:47;100022.69;;;42.64;14.87
80853;BME280;70270;43.434;28.338;2023-08-21T13:11:31;100022.25;;;42.62;14.13
80853;BME280;70270;43.434;28.338;2023-08-21T13:14:16;100041.44;;;42.58;14.04
80853;BME280;70270;43.434;28.338;2023-08-21T13:17:00;100023.47;;;42.68;14.17
80853;BME280;70270;43.434;28.338;2023-08-21T13:19:48;99938.28;;;42.25;14.41
80853;BME280;70270;43.434;28.338;2023-08-21T13:22:50;100025.09;;;42.69;14.83
80853;BME280;70270;43.434;28.338;2023-08-21T13:25:38;100025.38;;;42.85;14.00
80853;BME280;70270;43.434;28.338;2023-08-21T13:28:25;99936.56;;;42.38;14.72
80853;BME280;70270;43.434;28.338;2023-08-21T13:31:09;100014.16;;;43.08;14.59
80853;BME280;70270;43.434;28.338;2023-08-21T13:33:55;100025.41;;;42.78;14.39
80853;BME280;70270;43.434;28.338;2023-08-21T13:36:39;100016.44;;;42.79;14.98
80853;BME280;70270;43.434;28.338;2023-08-21T13:39:24;100023.06;;;42.66;15.15
80853;BME280;70270;43.434;28.338;2023-08-21T13:42:10;100027.81;;;42.83;15.00
80853;BME280;70270;43.434;28.338;2023-08-21T13:44:54;100026.44;;;42.98;15.06
80853;BME280;70270;43.434;28.338;2023-08-21T13:47:40;100033.72;;;43.06;14.65
80853;BME280;70270;43.434;28.338;2023-08-21T13:50:24;100037.84;;;43.05;14.95
80853;BME280;70270;43.434;28.338;2023-08-21T13:53:09;100040.25;;;43.07;15.37
80853;BME280;70270;43.434;28.338;2023-08-21T13:55:56;100048.16;;;42.88;15.20
80853;BME280;70270;43.434;28.338;2023-08-21T13:58:42;100039.63;;;42.85;15.53
80853;BME280;70270;43.434;28.338;2023-08-21T14:01:27;100017.81;;;42.61;16.43
80853;BME280;70270;43.434;28.338;2023-08-21T14:04:12;100036.84;;;42.74;15.81
80853;BME280;70270;43.434;28.338;2023-08-21T14:06:56;100034.16;;;42.53;16.18
80853;BME280;70270;43.434;28.338;2023-08-21T14:09:41;100038.38;;;42.34;16.73
80853;BME280;70270;43.434;28.338;2023-08-21T14:12:29;100032.78;;;42.17;16.43
80853;BME280;70270;43.434;28.338;2023-08-21T14:15:13;100049.03;;;42.20;16.83
80853;BME280;70270;43.434;28.338;2023-08-21T14:17:57;99996.25;;;42.01;17.76
80853;BME280;70270;43.434;28.338;2023-08-21T14:20:42;100035.06;;;42.43;17.29